sensor_id;sensor_type;location;lat;lon;timestamp;pressure;altitude;pressure_sealevel;temperature;humidity
33845;BME280;20145;43.118;25.694;2023-06-22T00:01:48;99693.56;;;20.83;100.00
33845;BME280;20145;43.118;25.694;2023-06-22T00:04:14;99686.69;;;20.80;100.00
33845;BME280;20145;43.118;25.694;2023-06-22T00:06:39;99691.94;;;20.80;100.00
33845;BME280;20145;43.118;25.694;2023-06-22T00:09:05;99694.34;;;20.85;100.00
33845;BME280;20145;43.118;25.694;2023-06-22T00:11:33;99694.97;;;20.90;100.00
33845;BME280;20145;43.118;25.694;2023-06-22T00:13:59;99692.88;;;20.97;100.00
33845;BME280;20145;43.118;25.694;2023-06-22T00:16:25;99700.22;;;21.07;100.00
33845;BME280;20145;43.118;25.694;2023-06-22T00:18:50;99707.00;;;21.11;100.00
33845;BME280;20145;43.118;25.694;2023-06-22T00:21:16;99693.13;;;21.09;100.00
33845;BME280;20145;43.118;25.694;2023-06-22T00:23:41;99706.69;;;21.17;100.00
33845;BME280;20145;43.118;25.694;2023-06-22T00:26:08;99703.91;;;21.21;100.00
33845;BME280;20145;43.118;25.694;2023-06-22T00:28:34;99704.75;;;21.21;100.00
33845;BME280;20145;43.118;25.694;2023-06-22T00:30:59;99703.06;;;21.20;100.00
33845;BME280;20145;43.118;25.694;2023-06-22T00:33:26;99702.13;;;21.21;100.00
33845;BME280;20145;43.118;25.694;2023-06-22T00:35:52;99689.84;;;21.22;100.00
33845;BME280;20145;43.118;25.694;2023-06-22T00:38:18;99692.41;;;21.23;100.00
33845;BME280;20145;43.118;25.694;2023-06-22T00:40:44;99697.13;;;21.34;100.00
33845;BME280;20145;43.118;25.694;2023-06-22T00:43:10;99700.59;;;21.34;100.00
33845;BME280;20145;43.118;25.694;2023-06-22T00:45:36;99695.22;;;21.37;100.00
33845;BME280;20145;43.118;25.694;2023-06-22T00:48:02;99696.03;;;21.38;100.00
33845;BME280;20145;43.118;25.694;2023-06-22T00:50:32;99681.28;;;21.35;100.00
33845;BME280;20145;43.118;25.694;2023-06-22T00:53:01;99695.97;;;21.40;100.00
33845;BME280;20145;43.118;25.694;2023-06-22T00:55:29;99684.53;;;21.41;100.00
33845;BME280;20145;43.118;25.694;2023-06-22T00:57:55;99685.94;;;21.48;100.00
33845;BME280;20145;43.118;25.694;2023-06-22T01:00:25;99686.59;;;21.51;100.00
33845;BME280;20145;43.118;25.694;2023-06-22T01:02:52;99696.00;;;21.55;100.00
33845;BME280;20145;43.118;25.694;2023-06-22T01:05:21;99696.16;;;21.52;100.00
33845;BME280;20145;43.118;25.694;2023-06-22T01:08:08;99697.00;;;21.53;100.00
33845;BME280;20145;43.118;25.694;2023-06-22T01:10:51;99698.03;;;21.50;100.00
33845;BME280;20145;43.118;25.694;2023-06-22T01:18:58;99687.38;;;21.36;100.00
33845;BME280;20145;43.118;25.694;2023-06-22T01:21:28;99686.84;;;21.29;100.00
33845;BME280;20145;43.118;25.694;2023-06-22T01:25:07;99687.75;;;21.28;100.00
33845;BME280;20145;43.118;25.694;2023-06-22T01:30:02;99694.25;;;21.21;100.00
33845;BME280;20145;43.118;25.694;2023-06-22T01:32:33;99682.31;;;21.15;100.00
33845;BME280;20145;43.118;25.694;2023-06-22T01:35:00;99681.47;;;21.15;100.00
33845;BME280;20145;43.118;25.694;2023-06-22T01:37:27;99680.84;;;21.10;100.00
33845;BME280;20145;43.118;25.694;2023-06-22T01:39:55;99691.41;;;21.08;100.00
33845;BME280;20145;43.118;25.694;2023-06-22T01:42:23;99697.81;;;21.03;100.00
33845;BME280;20145;43.118;25.694;2023-06-22T01:44:49;99698.75;;;21.02;100.00
33845;BME280;20145;43.118;25.694;2023-06-22T01:47:15;99704.00;;;21.02;100.00
33845;BME280;20145;43.118;25.694;2023-06-22T01:49:41;99700.59;;;21.00;100.00
33845;BME280;20145;43.118;25.694;2023-06-22T01:52:07;99704.94;;;21.01;100.00
33845;BME280;20145;43.118;25.694;2023-06-22T01:54:33;99701.75;;;20.94;100.00
33845;BME280;20145;43.118;25.694;2023-06-22T01:56:59;99697.28;;;20.96;100.00
33845;BME280;20145;43.118;25.694;2023-06-22T01:59:29;99702.53;;;20.96;100.00
33845;BME280;20145;43.118;25.694;2023-06-22T02:02:03;99701.75;;;20.94;100.00
33845;BME280;20145;43.118;25.694;2023-06-22T02:04:36;99709.72;;;20.92;100.00
33845;BME280;20145;43.118;25.694;2023-06-22T02:07:07;99713.50;;;20.87;100.00
33845;BME280;20145;43.118;25.694;2023-06-22T02:09:35;99695.88;;;20.71;100.00
33845;BME280;20145;43.118;25.694;2023-06-22T02:12:03;99726.19;;;20.77;100.00
33845;BME280;20145;43.118;25.694;2023-06-22T02:14:30;99724.03;;;20.68;100.00
33845;BME280;20145;43.118;25.694;2023-06-22T02:16:56;99729.69;;;20.59;100.00
33845;BME280;20145;43.118;25.694;2023-06-22T02:19:24;99736.22;;;20.50;100.00
33845;BME280;20145;43.118;25.694;2023-06-22T02:21:50;99724.69;;;20.35;100.00
33845;BME280;20145;43.118;25.694;2023-06-22T02:24:18;99732.00;;;20.28;100.00
33845;BME280;20145;43.118;25.694;2023-06-22T02:26:44;99734.34;;;20.16;100.00
33845;BME280;20145;43.118;25.694;2023-06-22T02:29:11;99739.47;;;20.17;100.00
33845;BME280;20145;43.118;25.694;2023-06-22T02:31:36;99746.84;;;20.09;100.00
33845;BME280;20145;43.118;25.694;2023-06-22T02:34:02;99746.22;;;20.04;100.00
33845;BME280;20145;43.118;25.694;2023-06-22T02:36:27;99756.84;;;20.01;100.00
33845;BME280;20145;43.118;25.694;2023-06-22T02:38:55;99752.09;;;19.90;100.00
33845;BME280;20145;43.118;25.694;2023-06-22T02:41:24;99759.88;;;19.92;100.00
33845;BME280;20145;43.118;25.694;2023-06-22T02:43:49;99758.22;;;19.89;100.00
33845;BME280;20145;43.118;25.694;2023-06-22T02:46:15;99761.00;;;19.86;100.00
33845;BME280;20145;43.118;25.694;2023-06-22T02:48:41;99751.97;;;19.73;100.00
33845;BME280;20145;43.118;25.694;2023-06-22T02:51:06;99752.31;;;19.65;100.00
33845;BME280;20145;43.118;25.694;2023-06-22T02:53:32;99761.19;;;19.61;100.00
33845;BME280;20145;43.118;25.694;2023-06-22T02:55:58;99760.47;;;19.57;100.00
33845;BME280;20145;43.118;25.694;2023-06-22T02:58:23;99746.78;;;19.51;100.00
33845;BME280;20145;43.118;25.694;2023-06-22T03:00:50;99764.50;;;19.66;100.00
33845;BME280;20145;43.118;25.694;2023-06-22T03:03:19;99754.88;;;19.67;100.00
33845;BME280;20145;43.118;25.694;2023-06-22T03:05:45;99760.81;;;19.70;100.00
33845;BME280;20145;43.118;25.694;2023-06-22T03:08:10;99768.41;;;19.76;100.00
33845;BME280;20145;43.118;25.694;2023-06-22T03:10:36;99764.44;;;19.87;100.00
33845;BME280;20145;43.118;25.694;2023-06-22T03:13:02;99760.66;;;19.94;100.00
33845;BME280;20145;43.118;25.694;2023-06-22T03:15:28;99764.28;;;20.10;100.00
33845;BME280;20145;43.118;25.694;2023-06-22T03:17:55;99766.47;;;20.19;100.00
33845;BME280;20145;43.118;25.694;2023-06-22T03:20:20;99774.53;;;20.34;100.00
33845;BME280;20145;43.118;25.694;2023-06-22T03:22:46;99768.91;;;20.43;100.00
33845;BME280;20145;43.118;25.694;2023-06-22T03:25:13;99769.28;;;20.54;100.00
33845;BME280;20145;43.118;25.694;2023-06-22T03:27:40;99775.16;;;20.59;100.00
33845;BME280;20145;43.118;25.694;2023-06-22T03:30:07;99783.34;;;20.70;100.00
33845;BME280;20145;43.118;25.694;2023-06-22T03:32:34;99783.06;;;20.77;100.00
33845;BME280;20145;43.118;25.694;2023-06-22T03:34:59;99786.16;;;20.85;100.00
33845;BME280;20145;43.118;25.694;2023-06-22T03:37:26;99785.78;;;20.92;100.00
33845;BME280;20145;43.118;25.694;2023-06-22T03:39:52;99782.03;;;20.98;100.00
33845;BME280;20145;43.118;25.694;2023-06-22T03:42:18;99786.88;;;21.06;100.00
33845;BME280;20145;43.118;25.694;2023-06-22T03:44:44;99789.91;;;21.15;100.00
33845;BME280;20145;43.118;25.694;2023-06-22T03:47:09;99795.84;;;21.36;100.00
33845;BME280;20145;43.118;25.694;2023-06-22T03:49:35;99792.63;;;21.49;100.00
33845;BME280;20145;43.118;25.694;2023-06-22T03:52:02;99797.53;;;21.72;100.00
33845;BME280;20145;43.118;25.694;2023-06-22T03:54:28;99800.06;;;21.91;100.00
33845;BME280;20145;43.118;25.694;2023-06-22T03:56:55;99798.56;;;22.20;100.00
33845;BME280;20145;43.118;25.694;2023-06-22T03:59:21;99794.00;;;22.56;99.80
33845;BME280;20145;43.118;25.694;2023-06-22T04:01:47;99803.75;;;23.01;98.14
33845;BME280;20145;43.118;25.694;2023-06-22T04:04:12;99805.19;;;23.37;93.88
33845;BME280;20145;43.118;25.694;2023-06-22T04:06:38;99803.47;;;23.66;91.06
33845;BME280;20145;43.118;25.694;2023-06-22T04:09:08;99795.53;;;23.96;90.00
33845;BME280;20145;43.118;25.694;2023-06-22T04:11:33;99800.50;;;24.44;89.14
33845;BME280;20145;43.118;25.694;2023-06-22T04:13:59;99805.72;;;24.73;86.14
33845;BME280;20145;43.118;25.694;2023-06-22T04:16:27;99808.97;;;24.90;83.97
33845;BME280;20145;43.118;25.694;2023-06-22T04:18:53;99810.56;;;25.20;82.25
33845;BME280;20145;43.118;25.694;2023-06-22T04:21:18;99809.16;;;25.42;81.53
33845;BME280;20145;43.118;25.694;2023-06-22T04:23:45;99823.22;;;25.68;80.26
33845;BME280;20145;43.118;25.694;2023-06-22T04:26:12;99819.63;;;25.69;78.25
33845;BME280;20145;43.118;25.694;2023-06-22T04:28:37;99818.31;;;25.89;78.83
33845;BME280;20145;43.118;25.694;2023-06-22T04:31:03;99820.28;;;26.36;78.74
33845;BME280;20145;43.118;25.694;2023-06-22T04:33:29;99831.41;;;26.78;77.95
33845;BME280;20145;43.118;25.694;2023-06-22T04:35:55;99821.09;;;27.10;76.22
33845;BME280;20145;43.118;25.694;2023-06-22T04:38:22;99820.22;;;27.10;75.35
33845;BME280;20145;43.118;25.694;2023-06-22T04:40:48;99822.97;;;27.21;75.86
33845;BME280;20145;43.118;25.694;2023-06-22T04:43:14;99832.28;;;26.66;77.17
33845;BME280;20145;43.118;25.694;2023-06-22T04:45:40;99823.56;;;25.76;79.13
33845;BME280;20145;43.118;25.694;2023-06-22T04:48:06;99823.41;;;25.39;81.90
33845;BME280;20145;43.118;25.694;2023-06-22T04:50:31;99843.03;;;25.22;83.27
33845;BME280;20145;43.118;25.694;2023-06-22T04:52:57;99841.00;;;24.99;83.64
33845;BME280;20145;43.118;25.694;2023-06-22T04:55:23;99840.97;;;24.86;85.28
33845;BME280;20145;43.118;25.694;2023-06-22T04:57:51;99836.81;;;25.09;84.59
33845;BME280;20145;43.118;25.694;2023-06-22T05:00:18;99842.06;;;25.23;84.45
33845;BME280;20145;43.118;25.694;2023-06-22T05:02:46;99841.56;;;25.31;86.60
33845;BME280;20145;43.118;25.694;2023-06-22T05:05:12;99836.28;;;25.44;84.71
33845;BME280;20145;43.118;25.694;2023-06-22T05:07:43;99830.41;;;25.66;83.71
33845;BME280;20145;43.118;25.694;2023-06-22T05:10:10;99831.84;;;25.84;82.45
33845;BME280;20145;43.118;25.694;2023-06-22T05:12:38;99832.25;;;26.03;82.46
33845;BME280;20145;43.118;25.694;2023-06-22T05:15:05;99830.69;;;26.14;81.94
33845;BME280;20145;43.118;25.694;2023-06-22T05:17:31;99833.81;;;26.32;82.42
33845;BME280;20145;43.118;25.694;2023-06-22T05:19:56;99827.03;;;26.53;83.36
33845;BME280;20145;43.118;25.694;2023-06-22T05:22:22;99831.44;;;26.65;79.35
33845;BME280;20145;43.118;25.694;2023-06-22T05:24:47;99823.78;;;26.74;77.90
33845;BME280;20145;43.118;25.694;2023-06-22T05:27:13;99828.59;;;26.92;75.96
33845;BME280;20145;43.118;25.694;2023-06-22T05:29:39;99847.97;;;26.93;75.33
33845;BME280;20145;43.118;25.694;2023-06-22T05:32:05;99845.59;;;27.01;75.51
33845;BME280;20145;43.118;25.694;2023-06-22T05:34:31;99847.47;;;27.12;75.05
33845;BME280;20145;43.118;25.694;2023-06-22T05:36:57;99846.25;;;27.05;75.21
33845;BME280;20145;43.118;25.694;2023-06-22T05:39:24;99855.97;;;27.17;75.70
33845;BME280;20145;43.118;25.694;2023-06-22T05:41:49;99855.91;;;27.30;76.09
33845;BME280;20145;43.118;25.694;2023-06-22T05:44:15;99848.16;;;27.27;75.12
33845;BME280;20145;43.118;25.694;2023-06-22T05:46:42;99848.63;;;27.21;75.77
33845;BME280;20145;43.118;25.694;2023-06-22T05:49:12;99848.00;;;27.17;73.70
33845;BME280;20145;43.118;25.694;2023-06-22T05:51:37;99843.47;;;27.06;74.59
33845;BME280;20145;43.118;25.694;2023-06-22T05:54:03;99838.84;;;27.21;75.55
33845;BME280;20145;43.118;25.694;2023-06-22T05:56:28;99847.72;;;27.33;75.45
33845;BME280;20145;43.118;25.694;2023-06-22T05:58:54;99844.13;;;27.45;72.97
33845;BME280;20145;43.118;25.694;2023-06-22T06:01:20;99840.97;;;27.40;74.44
33845;BME280;20145;43.118;25.694;2023-06-22T06:03:45;99847.59;;;27.34;73.71
33845;BME280;20145;43.118;25.694;2023-06-22T06:06:11;99843.53;;;27.42;75.42
33845;BME280;20145;43.118;25.694;2023-06-22T06:08:38;99845.78;;;27.11;74.06
33845;BME280;20145;43.118;25.694;2023-06-22T06:11:04;99860.97;;;27.33;74.36
33845;BME280;20145;43.118;25.694;2023-06-22T06:13:29;99859.97;;;27.23;73.12
33845;BME280;20145;43.118;25.694;2023-06-22T06:15:56;99864.28;;;27.00;74.91
33845;BME280;20145;43.118;25.694;2023-06-22T06:18:21;99858.19;;;26.86;75.83
33845;BME280;20145;43.118;25.694;2023-06-22T06:20:47;99854.84;;;26.72;75.58
33845;BME280;20145;43.118;25.694;2023-06-22T06:23:12;99854.66;;;26.62;76.43
33845;BME280;20145;43.118;25.694;2023-06-22T06:25:38;99866.00;;;26.88;76.24
33845;BME280;20145;43.118;25.694;2023-06-22T06:28:04;99865.50;;;27.20;75.46
33845;BME280;20145;43.118;25.694;2023-06-22T06:30:30;99868.59;;;27.49;74.27
33845;BME280;20145;43.118;25.694;2023-06-22T06:32:55;99865.03;;;27.26;71.92
33845;BME280;20145;43.118;25.694;2023-06-22T06:35:21;99860.88;;;27.46;71.97
33845;BME280;20145;43.118;25.694;2023-06-22T06:37:48;99871.22;;;27.73;71.36
33845;BME280;20145;43.118;25.694;2023-06-22T06:40:15;99859.75;;;28.08;70.28
33845;BME280;20145;43.118;25.694;2023-06-22T06:42:43;99862.75;;;28.14;69.27
33845;BME280;20145;43.118;25.694;2023-06-22T06:45:15;99853.59;;;28.41;69.23
33845;BME280;20145;43.118;25.694;2023-06-22T06:47:40;99845.63;;;28.30;66.42
33845;BME280;20145;43.118;25.694;2023-06-22T06:50:07;99850.34;;;28.49;66.79
33845;BME280;20145;43.118;25.694;2023-06-22T06:52:33;99853.59;;;28.63;67.75
33845;BME280;20145;43.118;25.694;2023-06-22T06:54:59;99842.84;;;28.54;66.60
33845;BME280;20145;43.118;25.694;2023-06-22T06:57:25;99847.81;;;28.58;66.94
33845;BME280;20145;43.118;25.694;2023-06-22T06:59:55;99847.19;;;28.77;65.85
33845;BME280;20145;43.118;25.694;2023-06-22T07:02:22;99845.22;;;28.90;65.70
33845;BME280;20145;43.118;25.694;2023-06-22T07:04:47;99850.66;;;28.89;63.63
33845;BME280;20145;43.118;25.694;2023-06-22T07:07:13;99846.38;;;28.98;64.00
33845;BME280;20145;43.118;25.694;2023-06-22T07:09:39;99844.59;;;28.87;63.68
33845;BME280;20145;43.118;25.694;2023-06-22T07:12:05;99844.25;;;28.91;63.99
33845;BME280;20145;43.118;25.694;2023-06-22T07:14:30;99846.97;;;29.01;64.64
33845;BME280;20145;43.118;25.694;2023-06-22T07:16:57;99850.81;;;29.20;64.25
33845;BME280;20145;43.118;25.694;2023-06-22T07:19:27;99850.34;;;29.15;62.06
33845;BME280;20145;43.118;25.694;2023-06-22T07:21:53;99856.03;;;29.21;61.26
33845;BME280;20145;43.118;25.694;2023-06-22T07:24:22;99849.25;;;29.17;61.71
33845;BME280;20145;43.118;25.694;2023-06-22T07:26:49;99851.13;;;29.26;61.26
33845;BME280;20145;43.118;25.694;2023-06-22T07:29:19;99839.50;;;29.39;60.96
33845;BME280;20145;43.118;25.694;2023-06-22T07:31:46;99801.41;;;29.17;59.13
33845;BME280;20145;43.118;25.694;2023-06-22T07:34:13;99851.09;;;29.38;58.00
33845;BME280;20145;43.118;25.694;2023-06-22T07:36:38;99851.03;;;29.28;57.60
33845;BME280;20145;43.118;25.694;2023-06-22T07:39:05;99846.91;;;29.35;57.54
33845;BME280;20145;43.118;25.694;2023-06-22T07:41:31;99847.00;;;29.33;54.68
33845;BME280;20145;43.118;25.694;2023-06-22T07:43:56;99841.81;;;29.32;57.92
33845;BME280;20145;43.118;25.694;2023-06-22T07:46:23;99853.31;;;29.32;59.34
33845;BME280;20145;43.118;25.694;2023-06-22T07:48:48;99852.69;;;29.29;56.59
33845;BME280;20145;43.118;25.694;2023-06-22T07:51:14;99850.66;;;29.32;55.40
33845;BME280;20145;43.118;25.694;2023-06-22T07:53:41;99851.41;;;28.80;63.71
33845;BME280;20145;43.118;25.694;2023-06-22T07:56:08;99833.06;;;28.54;65.30
33845;BME280;20145;43.118;25.694;2023-06-22T07:58:35;99840.63;;;28.81;63.31
33845;BME280;20145;43.118;25.694;2023-06-22T08:01:01;99837.72;;;28.84;60.01
33845;BME280;20145;43.118;25.694;2023-06-22T08:03:26;99846.97;;;29.01;60.03
33845;BME280;20145;43.118;25.694;2023-06-22T08:05:52;99836.63;;;28.87;60.81
33845;BME280;20145;43.118;25.694;2023-06-22T08:08:17;99834.97;;;28.86;62.94
33845;BME280;20145;43.118;25.694;2023-06-22T08:10:43;99840.53;;;28.83;61.12
33845;BME280;20145;43.118;25.694;2023-06-22T08:13:10;99833.91;;;28.77;62.24
33845;BME280;20145;43.118;25.694;2023-06-22T08:15:35;99829.88;;;28.94;61.33
33845;BME280;20145;43.118;25.694;2023-06-22T08:18:01;99843.94;;;29.17;62.59
33845;BME280;20145;43.118;25.694;2023-06-22T08:20:26;99836.78;;;29.18;61.53
33845;BME280;20145;43.118;25.694;2023-06-22T08:22:54;99832.38;;;29.07;62.83
33845;BME280;20145;43.118;25.694;2023-06-22T08:25:20;99832.25;;;29.08;62.10
33845;BME280;20145;43.118;25.694;2023-06-22T08:27:47;99845.41;;;28.99;60.80
33845;BME280;20145;43.118;25.694;2023-06-22T08:30:14;99833.34;;;29.06;60.08
33845;BME280;20145;43.118;25.694;2023-06-22T08:32:39;99841.16;;;29.19;61.15
33845;BME280;20145;43.118;25.694;2023-06-22T08:35:05;99833.94;;;29.09;60.45
33845;BME280;20145;43.118;25.694;2023-06-22T08:37:34;99847.91;;;29.23;57.72
33845;BME280;20145;43.118;25.694;2023-06-22T08:40:04;99830.06;;;29.34;58.75
33845;BME280;20145;43.118;25.694;2023-06-22T08:42:34;99843.50;;;29.54;57.80
33845;BME280;20145;43.118;25.694;2023-06-22T08:45:00;99848.09;;;29.63;57.55
33845;BME280;20145;43.118;25.694;2023-06-22T08:47:27;99849.44;;;29.57;58.23
33845;BME280;20145;43.118;25.694;2023-06-22T08:49:53;99857.00;;;29.62;58.94
33845;BME280;20145;43.118;25.694;2023-06-22T08:52:32;99848.75;;;29.23;56.64
33845;BME280;20145;43.118;25.694;2023-06-22T08:55:16;99837.72;;;29.28;58.07
33845;BME280;20145;43.118;25.694;2023-06-22T08:57:58;99851.13;;;29.58;57.64
33845;BME280;20145;43.118;25.694;2023-06-22T09:07:10;99847.56;;;29.90;56.67
33845;BME280;20145;43.118;25.694;2023-06-22T09:09:41;99839.44;;;29.71;57.06
33845;BME280;20145;43.118;25.694;2023-06-22T09:16:01;99837.25;;;29.97;56.43
33845;BME280;20145;43.118;25.694;2023-06-22T09:18:29;99833.03;;;29.94;56.34
33845;BME280;20145;43.118;25.694;2023-06-22T09:30:30;99834.59;;;29.76;56.08
33845;BME280;20145;43.118;25.694;2023-06-22T09:33:06;99825.97;;;29.63;57.95
33845;BME280;20145;43.118;25.694;2023-06-22T09:35:41;99836.34;;;29.87;58.68
33845;BME280;20145;43.118;25.694;2023-06-22T09:38:09;99836.66;;;29.93;57.06
33845;BME280;20145;43.118;25.694;2023-06-22T09:40:35;99825.50;;;29.99;57.14
33845;BME280;20145;43.118;25.694;2023-06-22T09:46:26;99829.16;;;30.08;53.63
33845;BME280;20145;43.118;25.694;2023-06-22T09:49:00;99826.78;;;30.05;53.25
33845;BME280;20145;43.118;25.694;2023-06-22T09:54:44;99819.63;;;30.36;52.39
33845;BME280;20145;43.118;25.694;2023-06-22T09:57:18;99819.25;;;30.41;50.17
33845;BME280;20145;43.118;25.694;2023-06-22T09:59:44;99814.75;;;30.41;51.82
33845;BME280;20145;43.118;25.694;2023-06-22T10:05:34;99815.91;;;30.49;52.29
33845;BME280;20145;43.118;25.694;2023-06-22T10:11:10;99818.63;;;30.07;50.08
33845;BME280;20145;43.118;25.694;2023-06-22T10:13:37;99817.19;;;30.23;51.00
33845;BME280;20145;43.118;25.694;2023-06-22T10:16:03;99815.75;;;30.40;51.52
33845;BME280;20145;43.118;25.694;2023-06-22T10:18:34;99809.69;;;30.38;51.75
33845;BME280;20145;43.118;25.694;2023-06-22T10:27:35;99797.31;;;30.28;51.19
33845;BME280;20145;43.118;25.694;2023-06-22T10:39:31;99795.94;;;30.33;49.05
33845;BME280;20145;43.118;25.694;2023-06-22T10:42:11;99812.97;;;30.21;50.31
33845;BME280;20145;43.118;25.694;2023-06-22T10:44:44;99775.75;;;30.00;51.63
33845;BME280;20145;43.118;25.694;2023-06-22T10:47:10;99775.38;;;30.14;53.67
33845;BME280;20145;43.118;25.694;2023-06-22T10:49:38;99781.22;;;30.29;50.47
33845;BME280;20145;43.118;25.694;2023-06-22T10:52:06;99792.31;;;30.44;50.14
33845;BME280;20145;43.118;25.694;2023-06-22T10:54:33;99794.88;;;30.55;50.19
33845;BME280;20145;43.118;25.694;2023-06-22T10:56:59;99794.31;;;30.61;50.29
33845;BME280;20145;43.118;25.694;2023-06-22T10:59:25;99788.44;;;30.67;48.71
33845;BME280;20145;43.118;25.694;2023-06-22T11:01:53;99791.81;;;30.70;51.45
33845;BME280;20145;43.118;25.694;2023-06-22T11:04:18;99771.91;;;30.74;48.86
33845;BME280;20145;43.118;25.694;2023-06-22T11:06:47;99790.88;;;31.00;47.35
33845;BME280;20145;43.118;25.694;2023-06-22T11:09:13;99784.56;;;31.01;45.14
33845;BME280;20145;43.118;25.694;2023-06-22T11:11:44;99778.94;;;31.04;43.92
33845;BME280;20145;43.118;25.694;2023-06-22T11:14:15;99789.63;;;31.14;44.50
33845;BME280;20145;43.118;25.694;2023-06-22T11:16:42;99791.13;;;31.26;45.07
33845;BME280;20145;43.118;25.694;2023-06-22T11:19:08;99792.56;;;31.30;47.02
33845;BME280;20145;43.118;25.694;2023-06-22T11:21:34;99791.00;;;31.27;46.88
33845;BME280;20145;43.118;25.694;2023-06-22T11:24:02;99796.91;;;31.31;45.82
33845;BME280;20145;43.118;25.694;2023-06-22T11:26:28;99786.94;;;31.33;48.20
33845;BME280;20145;43.118;25.694;2023-06-22T11:28:54;99786.25;;;31.41;46.36
33845;BME280;20145;43.118;25.694;2023-06-22T11:31:23;99780.59;;;31.53;46.14
33845;BME280;20145;43.118;25.694;2023-06-22T11:33:49;99778.34;;;31.59;49.08
33845;BME280;20145;43.118;25.694;2023-06-22T11:36:20;99788.22;;;31.29;45.71
33845;BME280;20145;43.118;25.694;2023-06-22T11:42:12;99787.34;;;31.58;45.18
33845;BME280;20145;43.118;25.694;2023-06-22T11:44:44;99793.56;;;31.86;44.36
33845;BME280;20145;43.118;25.694;2023-06-22T11:47:39;99785.19;;;32.18;46.81
33845;BME280;20145;43.118;25.694;2023-06-22T11:53:02;99786.88;;;32.47;45.98
33845;BME280;20145;43.118;25.694;2023-06-22T11:56:01;99778.50;;;32.04;42.65
33845;BME280;20145;43.118;25.694;2023-06-22T11:58:57;99781.47;;;32.01;44.78
33845;BME280;20145;43.118;25.694;2023-06-22T12:01:32;99756.91;;;31.88;44.46
33845;BME280;20145;43.118;25.694;2023-06-22T12:04:05;99761.59;;;32.13;44.67
33845;BME280;20145;43.118;25.694;2023-06-22T12:06:50;99761.06;;;32.10;44.13
33845;BME280;20145;43.118;25.694;2023-06-22T12:09:49;99763.94;;;32.26;45.79
33845;BME280;20145;43.118;25.694;2023-06-22T12:18:43;99763.16;;;31.59;44.93
33845;BME280;20145;43.118;25.694;2023-06-22T12:27:31;99758.75;;;31.87;45.56
33845;BME280;20145;43.118;25.694;2023-06-22T12:36:19;99755.34;;;32.22;44.62
33845;BME280;20145;43.118;25.694;2023-06-22T12:39:04;99754.59;;;32.12;45.69
33845;BME280;20145;43.118;25.694;2023-06-22T12:41:41;99743.00;;;31.94;45.92
33845;BME280;20145;43.118;25.694;2023-06-22T12:44:26;99757.00;;;31.59;47.12
33845;BME280;20145;43.118;25.694;2023-06-22T12:46:55;99743.78;;;31.67;45.85
33845;BME280;20145;43.118;25.694;2023-06-22T12:49:21;99739.44;;;32.03;46.59
33845;BME280;20145;43.118;25.694;2023-06-22T12:51:50;99734.38;;;32.00;41.88
33845;BME280;20145;43.118;25.694;2023-06-22T12:54:36;99736.13;;;32.37;42.42
33845;BME280;20145;43.118;25.694;2023-06-22T12:57:18;99733.91;;;32.60;43.88
33845;BME280;20145;43.118;25.694;2023-06-22T12:59:48;99736.81;;;32.66;43.69
33845;BME280;20145;43.118;25.694;2023-06-22T13:08:45;99709.94;;;32.22;41.88
33845;BME280;20145;43.118;25.694;2023-06-22T13:11:17;99731.56;;;32.29;45.54
33845;BME280;20145;43.118;25.694;2023-06-22T13:13:54;99733.56;;;31.99;46.93
33845;BME280;20145;43.118;25.694;2023-06-22T13:19:49;99723.06;;;31.31;50.58
33845;BME280;20145;43.118;25.694;2023-06-22T13:22:34;99712.44;;;31.22;49.37
33845;BME280;20145;43.118;25.694;2023-06-22T13:25:14;99703.69;;;31.49;50.88
33845;BME280;20145;43.118;25.694;2023-06-22T13:27:44;99698.19;;;31.50;49.85
33845;BME280;20145;43.118;25.694;2023-06-22T13:30:10;99716.13;;;31.58;49.39
33845;BME280;20145;43.118;25.694;2023-06-22T13:32:36;99718.38;;;31.63;49.77
33845;BME280;20145;43.118;25.694;2023-06-22T13:35:01;99702.41;;;31.53;47.21
33845;BME280;20145;43.118;25.694;2023-06-22T13:37:27;99687.84;;;31.38;47.09
33845;BME280;20145;43.118;25.694;2023-06-22T13:39:52;99697.84;;;31.16;47.25
33845;BME280;20145;43.118;25.694;2023-06-22T13:42:18;99696.84;;;31.17;49.72
33845;BME280;20145;43.118;25.694;2023-06-22T13:44:44;99700.03;;;31.50;46.54
33845;BME280;20145;43.118;25.694;2023-06-22T13:47:09;99690.84;;;31.90;46.07
33845;BME280;20145;43.118;25.694;2023-06-22T13:49:35;99693.53;;;32.17;44.68
33845;BME280;20145;43.118;25.694;2023-06-22T13:52:01;99689.13;;;32.26;45.09
33845;BME280;20145;43.118;25.694;2023-06-22T13:54:36;99704.25;;;32.35;44.79
33845;BME280;20145;43.118;25.694;2023-06-22T14:00:23;99694.72;;;32.33;42.82
33845;BME280;20145;43.118;25.694;2023-06-22T14:02:56;99680.44;;;32.42;42.79
33845;BME280;20145;43.118;25.694;2023-06-22T14:05:28;99693.88;;;32.86;43.67
33845;BME280;20145;43.118;25.694;2023-06-22T14:08:00;99707.63;;;32.91;43.01
33845;BME280;20145;43.118;25.694;2023-06-22T14:20:05;99707.97;;;32.07;44.26
33845;BME280;20145;43.118;25.694;2023-06-22T14:22:34;99696.16;;;31.72;47.68
33845;BME280;20145;43.118;25.694;2023-06-22T14:28:22;99691.44;;;31.56;44.15
33845;BME280;20145;43.118;25.694;2023-06-22T14:30:47;99687.94;;;31.55;44.59
33845;BME280;20145;43.118;25.694;2023-06-22T14:33:13;99684.44;;;31.83;44.24
33845;BME280;20145;43.118;25.694;2023-06-22T14:35:38;99691.38;;;32.03;43.58
33845;BME280;20145;43.118;25.694;2023-06-22T14:38:04;99685.47;;;32.27;43.78
33845;BME280;20145;43.118;25.694;2023-06-22T14:40:30;99684.13;;;32.59;43.26
33845;BME280;20145;43.118;25.694;2023-06-22T14:42:55;99679.53;;;32.87;43.47